Time;durP1;ratioP1;P1;durP2;ratioP2;P2;SDS_P1;SDS_P2;PMS_P1;PMS_P2;Temp;Humidity;BMP_temperature;BMP_pressure;BME280_temperature;BME280_humidity;BME280_pressure;Samples;Min_cycle;Max_cycle;Signal;HPM_P1;HPM_P2
2022/04/22 00:02:19;;;;;;;2.90;2.70;;;20.20;45.20;21.30;100022.00;;;;4989409;28;20249;-57
2022/04/22 00:04:45;;;;;;;2.80;2.60;;;20.20;45.20;21.30;100020.00;;;;5008483;28;20170;-54
2022/04/22 00:07:11;;;;;;;3.20;2.80;;;20.20;45.30;21.30;100010.00;;;;5010136;28;20250;-54
2022/04/22 00:09:37;;;;;;;2.80;2.60;;;20.10;45.20;21.20;100021.00;;;;5007776;28;20580;-55
2022/04/22 00:12:03;;;;;;;2.73;2.53;;;20.10;45.20;21.20;100019.00;;;;5006369;28;20207;-54
2022/04/22 00:14:29;;;;;;;2.83;2.40;;;20.20;45.30;21.20;100008.00;;;;5006664;28;20250;-56
2022/04/22 00:16:55;;;;;;;2.70;2.50;;;20.10;45.10;21.20;100011.00;;;;5006819;28;20589;-55
2022/04/22 00:19:20;;;;;;;2.57;2.40;;;20.10;45.20;21.20;100008.00;;;;5006889;28;20196;-55
2022/04/22 00:21:47;;;;;;;2.70;2.50;;;20.10;45.10;21.20;100013.00;;;;5006079;28;20195;-54
2022/04/22 00:24:14;;;;;;;2.67;2.47;;;20.10;45.10;21.10;99999.00;;;;5006958;28;20236;-55
2022/04/22 00:26:40;;;;;;;2.63;2.43;;;20.10;45.20;21.10;99994.00;;;;5010229;28;20178;-56
2022/04/22 00:29:07;;;;;;;2.70;2.50;;;20.10;45.20;21.10;99995.00;;;;5010519;28;20175;-54
2022/04/22 00:31:33;;;;;;;3.30;2.43;;;20.10;45.20;21.10;100006.00;;;;5010622;28;20200;-57
2022/04/22 00:33:59;;;;;;;2.93;2.63;;;20.00;45.20;21.10;100011.00;;;;5010590;28;20265;-55
2022/04/22 00:36:24;;;;;;;2.70;2.50;;;20.00;45.30;21.10;100004.00;;;;5010041;28;20195;-55
2022/04/22 00:38:50;;;;;;;2.80;2.60;;;20.00;45.40;21.10;100013.00;;;;5010278;28;20752;-56
2022/04/22 00:41:16;;;;;;;2.80;2.60;;;20.00;45.40;21.00;99991.00;;;;5013239;28;20577;-56
2022/04/22 00:43:46;;;;;;;2.80;2.60;;;20.00;45.50;21.00;100014.00;;;;5012441;28;20259;-56
2022/04/22 00:46:12;;;;;;;3.00;2.70;;;20.00;45.40;21.00;100016.00;;;;5011151;28;20799;-57
2022/04/22 00:48:38;;;;;;;3.13;2.50;;;20.00;45.40;21.00;100013.00;;;;5009774;28;20179;-56
2022/04/22 00:51:04;;;;;;;2.70;2.50;;;19.90;45.40;21.00;100005.00;;;;5009652;28;20175;-55
2022/04/22 00:53:32;;;;;;;2.70;2.50;;;19.90;45.40;21.00;99999.00;;;;5009820;28;20198;-55
2022/04/22 00:55:58;;;;;;;2.60;2.40;;;19.90;45.40;20.70;100005.00;;;;5008328;28;20171;-57
2022/04/22 00:58:24;;;;;;;3.00;2.60;;;19.90;45.40;20.90;99996.00;;;;5009597;28;20275;-55
2022/04/22 01:00:49;;;;;;;3.30;2.60;;;19.90;45.40;20.90;99998.00;;;;5009696;28;20229;-54
2022/04/22 01:03:15;;;;;;;2.80;2.60;;;19.80;45.30;20.90;99999.00;;;;5009304;28;20196;-56
2022/04/22 01:11:10;;;;;;;2.80;2.60;;;19.80;45.30;20.80;99981.00;;;;4994721;28;20182;-53
2022/04/22 01:13:36;;;;;;;2.80;2.60;;;19.80;45.40;20.80;99996.00;;;;5008261;28;20179;-54
2022/04/22 01:16:01;;;;;;;2.93;2.67;;;19.80;45.40;20.80;99985.00;;;;5008243;28;20176;-56
2022/04/22 01:18:27;;;;;;;2.67;2.47;;;19.70;45.20;20.80;99991.00;;;;5009126;28;20665;-54
2022/04/22 01:20:53;;;;;;;2.90;2.70;;;19.70;45.30;20.70;99976.00;;;;5009032;28;20182;-55
2022/04/22 01:23:18;;;;;;;2.90;2.70;;;19.80;45.40;20.70;99968.00;;;;5009655;28;20790;-54
2022/04/22 01:25:44;;;;;;;2.80;2.60;;;19.80;45.40;20.70;99974.00;;;;5009123;28;20175;-54
2022/04/22 01:28:10;;;;;;;2.90;2.70;;;19.70;45.30;20.70;99965.00;;;;5009338;28;20183;-53
2022/04/22 01:30:36;;;;;;;2.93;2.73;;;19.70;45.40;20.70;99968.00;;;;5009194;28;20246;-54
2022/04/22 01:33:02;;;;;;;2.90;2.70;;;19.70;45.40;20.60;99917.00;;;;5010266;28;20227;-56
2022/04/22 01:35:28;;;;;;;2.80;2.60;;;19.70;45.30;20.60;99962.00;;;;5012868;28;20465;-56
2022/04/22 01:37:53;;;;;;;2.90;2.70;;;19.70;45.40;20.60;99965.00;;;;5008744;28;20207;-54
2022/04/22 01:40:19;;;;;;;2.70;2.50;;;19.70;45.40;20.60;99967.00;;;;5008873;28;20164;-55
2022/04/22 01:42:45;;;;;;;2.80;2.60;;;19.60;45.30;20.60;99960.00;;;;5009031;28;20195;-56
2022/04/22 01:45:14;;;;;;;2.80;2.60;;;19.60;45.40;20.60;99954.00;;;;5009627;28;20175;-56
2022/04/22 01:47:40;;;;;;;3.20;2.90;;;19.60;45.40;20.60;99947.00;;;;5008648;28;20171;-54
2022/04/22 01:50:07;;;;;;;2.80;2.60;;;19.60;45.40;20.60;99949.00;;;;5008774;28;20552;-54
2022/04/22 01:52:33;;;;;;;2.60;2.40;;;19.60;45.50;20.50;99949.00;;;;5008740;28;20234;-53
2022/04/22 01:54:59;;;;;;;2.70;2.50;;;19.60;45.40;20.50;99948.00;;;;4990964;28;20208;-55
2022/04/22 01:57:25;;;;;;;3.00;2.80;;;19.50;45.30;20.50;99958.00;;;;5008087;28;20176;-56
2022/04/22 01:59:50;;;;;;;2.63;2.43;;;19.50;45.30;20.50;99955.00;;;;5008320;28;20251;-54
2022/04/22 02:02:16;;;;;;;2.70;2.50;;;19.50;45.30;20.50;99959.00;;;;5008142;28;20242;-54
2022/04/22 02:04:42;;;;;;;2.83;2.60;;;19.50;45.30;20.50;99949.00;;;;5008201;28;20282;-55
2022/04/22 02:07:08;;;;;;;2.70;2.50;;;19.50;45.40;20.40;99956.00;;;;5008344;28;20251;-55
2022/04/22 02:09:34;;;;;;;2.80;2.60;;;19.40;45.20;20.40;99952.00;;;;5007341;28;20660;-54
2022/04/22 02:11:59;;;;;;;3.07;2.77;;;19.40;45.30;20.40;99947.00;;;;5009365;28;20700;-55
2022/04/22 02:14:25;;;;;;;3.43;2.70;;;19.40;45.30;20.10;99958.00;;;;5010108;28;20183;-54
2022/04/22 02:16:52;;;;;;;3.00;2.80;;;19.40;45.30;20.40;99949.00;;;;5008629;28;20183;-56
2022/04/22 02:19:18;;;;;;;2.93;2.57;;;19.40;45.30;20.40;99948.00;;;;5008784;28;20755;-55
2022/04/22 02:21:44;;;;;;;2.77;2.57;;;19.40;45.30;20.40;99954.00;;;;5007919;28;20556;-55
2022/04/22 02:24:09;;;;;;;3.20;2.90;;;19.40;45.30;20.30;99940.00;;;;5008092;28;20180;-55
2022/04/22 02:29:19;;;;;;;2.80;2.60;;;19.30;45.20;20.30;99943.00;;;;5008227;28;20199;-54
2022/04/22 02:31:45;;;;;;;2.70;2.50;;;19.30;45.20;20.30;99939.00;;;;5007701;28;20623;-55
2022/04/22 02:34:11;;;;;;;2.77;2.57;;;19.30;45.20;20.20;99936.00;;;;5007822;28;20788;-55
2022/04/22 02:36:37;;;;;;;2.90;2.70;;;19.30;45.20;20.20;99937.00;;;;5007923;28;20178;-57
2022/04/22 02:39:02;;;;;;;4.53;2.73;;;19.30;45.20;20.20;99938.00;;;;5007727;28;20203;-55
2022/04/22 02:46:56;;;;;;;2.70;2.50;;;19.20;45.10;20.20;99928.00;;;;5007037;28;20194;-55
2022/04/22 02:49:22;;;;;;;2.60;2.40;;;19.20;45.10;20.20;99916.00;;;;5007780;28;20207;-53
2022/04/22 02:51:47;;;;;;;2.70;2.50;;;19.10;45.00;20.20;99923.00;;;;5007684;28;20199;-55
2022/04/22 02:54:13;;;;;;;2.60;2.40;;;19.20;45.10;20.10;99936.00;;;;5006399;28;20675;-56
2022/04/22 02:56:39;;;;;;;2.97;2.70;;;19.20;45.10;20.10;99917.00;;;;5012025;28;20242;-55
2022/04/22 02:59:05;;;;;;;2.57;2.37;;;19.20;45.10;20.10;99933.00;;;;5012704;28;20199;-55
2022/04/22 03:01:33;;;;;;;2.60;2.40;;;19.20;45.10;20.10;99927.00;;;;5010097;28;20270;-54
2022/04/22 03:03:58;;;;;;;2.67;2.47;;;19.10;45.10;19.90;99927.00;;;;5007923;28;20174;-56
2022/04/22 03:06:26;;;;;;;2.90;2.70;;;19.10;45.10;20.10;99926.00;;;;5006752;28;20172;-56
2022/04/22 03:08:52;;;;;;;2.80;2.60;;;19.10;45.10;20.00;99926.00;;;;5006990;28;20168;-54
2022/04/22 03:11:20;;;;;;;2.93;2.63;;;19.10;45.10;20.00;99923.00;;;;5006937;28;20183;-56
2022/04/22 03:13:46;;;;;;;2.73;2.53;;;19.10;45.10;20.00;99922.00;;;;5007394;28;20263;-57
2022/04/22 03:16:11;;;;;;;2.90;2.70;;;19.10;45.10;20.00;99929.00;;;;5006901;28;20819;-56
2022/04/22 03:18:37;;;;;;;2.67;2.47;;;19.00;45.00;20.00;99913.00;;;;5006825;28;20199;-56
2022/04/22 03:21:03;;;;;;;2.63;2.43;;;19.00;45.00;19.90;99928.00;;;;5006142;28;20198;-55
2022/04/22 03:23:29;;;;;;;2.90;2.70;;;19.00;45.00;19.90;99919.00;;;;5006788;28;20191;-54
2022/04/22 03:25:54;;;;;;;2.80;2.60;;;19.00;45.00;19.90;99919.00;;;;5006057;28;20168;-54
2022/04/22 03:28:21;;;;;;;2.90;2.70;;;19.00;45.00;19.90;99913.00;;;;5006438;28;20195;-54
2022/04/22 03:30:48;;;;;;;2.70;2.50;;;19.00;45.00;19.90;99912.00;;;;5006573;28;20202;-56
2022/04/22 03:33:14;;;;;;;3.30;2.83;;;19.00;45.00;19.90;99905.00;;;;5006557;28;20269;-55
2022/04/22 03:35:40;;;;;;;2.90;2.70;;;18.90;45.00;19.90;99905.00;;;;5006866;28;20175;-55
2022/04/22 03:38:06;;;;;;;3.90;2.80;;;19.00;45.10;19.80;99903.00;;;;5006347;28;20195;-53
2022/04/22 03:40:32;;;;;;;3.10;2.80;;;18.90;45.40;19.80;99904.00;;;;5006332;28;20189;-52
2022/04/22 03:42:57;;;;;;;5.27;2.77;;;18.90;45.20;19.80;99903.00;;;;4998161;28;20197;-55
2022/04/22 03:45:23;;;;;;;3.43;2.53;;;18.90;45.10;19.80;99904.00;;;;4994579;28;20176;-54
2022/04/22 03:47:49;;;;;;;3.30;2.50;;;18.90;45.10;19.80;99897.00;;;;4986143;28;20171;-54
2022/04/22 03:50:15;;;;;;;4.30;2.23;;;18.90;45.10;19.80;99901.00;;;;4987149;28;20580;-58
2022/04/22 03:52:40;;;;;;;3.37;2.50;;;18.90;45.10;19.80;99912.00;;;;4994655;28;20208;-54
2022/04/22 03:55:06;;;;;;;3.60;2.60;;;18.90;45.10;19.80;99899.00;;;;4986004;28;20255;-56
2022/04/22 04:00:16;;;;;;;2.67;2.30;;;18.80;44.90;19.70;99881.00;;;;4988406;28;20247;-54
2022/04/22 04:02:42;;;;;;;2.50;2.30;;;18.80;44.90;19.70;99884.00;;;;4989969;28;20204;-54
2022/04/22 04:05:08;;;;;;;3.83;2.30;;;18.70;44.80;19.70;99886.00;;;;4988763;28;20175;-53
2022/04/22 04:07:34;;;;;;;2.97;2.30;;;18.80;44.90;19.70;99887.00;;;;5007511;28;20177;-53
2022/04/22 04:18:12;;;;;;;2.50;2.20;;;18.80;45.10;19.60;99881.00;;;;5010111;28;20305;-53
2022/04/22 04:23:22;;;;;;;2.70;2.23;;;18.70;45.00;19.60;99878.00;;;;5011826;28;20300;-54
2022/04/22 04:25:49;;;;;;;3.53;2.20;;;18.70;45.00;19.60;99878.00;;;;5010868;28;20172;-55
2022/04/22 04:28:17;;;;;;;3.37;2.20;;;18.70;44.90;19.60;99888.00;;;;5009582;28;20190;-54
2022/04/22 04:30:43;;;;;;;2.37;2.17;;;18.70;44.90;19.60;99880.00;;;;5008969;28;20179;-54
2022/04/22 04:33:09;;;;;;;5.20;2.30;;;18.60;44.90;19.60;99876.00;;;;5009217;28;20245;-53
2022/04/22 04:35:35;;;;;;;2.50;2.30;;;18.60;44.90;19.60;99867.00;;;;5009249;28;20168;-55
2022/04/22 04:38:02;;;;;;;2.40;2.20;;;18.60;45.50;19.60;99875.00;;;;5009298;28;20194;-54
2022/04/22 04:40:28;;;;;;;4.50;2.90;;;18.60;44.90;19.50;99881.00;;;;5008869;28;20178;-55
2022/04/22 04:42:54;;;;;;;5.37;2.50;;;18.60;45.00;19.50;99881.00;;;;5009221;28;20333;-53
2022/04/22 04:45:20;;;;;;;3.83;2.50;;;18.60;44.90;19.50;99882.00;;;;5010707;28;20789;-56
2022/04/22 04:47:46;;;;;;;4.80;2.23;;;18.50;44.80;19.50;99884.00;;;;5028907;28;20570;-57
2022/04/22 04:50:12;;;;;;;5.53;2.40;;;18.60;45.00;19.50;99891.00;;;;5035811;28;20198;-62
2022/04/22 04:52:38;;;;;;;3.63;2.60;;;18.50;45.00;19.50;99897.00;;;;5017069;28;20198;-55
2022/04/22 04:55:06;;;;;;;5.87;2.47;;;18.50;45.00;19.50;99884.00;;;;5010088;28;20182;-54
2022/04/22 04:57:32;;;;;;;5.73;2.20;;;18.50;45.10;19.50;99878.00;;;;5008793;28;20787;-54
2022/04/22 04:59:58;;;;;;;6.10;2.63;;;18.50;45.10;19.50;99881.00;;;;5012966;28;20230;-55
2022/04/22 05:02:23;;;;;;;5.60;2.50;;;18.50;45.20;19.50;99892.00;;;;5013341;28;20401;-55
2022/04/22 05:04:49;;;;;;;6.73;2.60;;;18.50;45.10;19.50;99877.00;;;;5009513;28;20175;-56
2022/04/22 05:07:15;;;;;;;2.50;2.20;;;18.40;45.10;19.50;99878.00;;;;5009233;28;20664;-55
2022/04/22 05:09:40;;;;;;;3.70;2.40;;;18.40;45.10;19.20;99880.00;;;;5008485;28;20180;-54
2022/04/22 05:12:07;;;;;;;2.57;2.30;;;18.40;45.10;19.40;99880.00;;;;5008452;28;20824;-55
2022/04/22 05:14:32;;;;;;;3.33;2.40;;;18.40;45.10;19.40;99887.00;;;;5008865;28;20185;-55
2022/04/22 05:16:59;;;;;;;3.50;2.50;;;18.40;45.10;19.40;99872.00;;;;5008987;28;20675;-54
2022/04/22 05:19:24;;;;;;;4.37;2.37;;;18.40;45.10;19.40;99885.00;;;;5008527;28;20784;-55
2022/04/22 05:21:50;;;;;;;6.17;2.30;;;18.40;45.10;19.40;99873.00;;;;5008246;28;20249;-53
2022/04/22 05:24:16;;;;;;;4.07;2.30;;;18.40;45.10;19.40;99869.00;;;;5008527;28;20578;-54
2022/04/22 05:26:42;;;;;;;5.20;2.40;;;18.40;45.10;19.40;99878.00;;;;5008277;28;20229;-54
2022/04/22 05:32:36;;;;;;;3.97;2.33;;;18.30;45.40;19.30;99878.00;;;;5008575;28;20182;-55
2022/04/22 05:34:37;;;;;;;4.33;2.43;;;18.40;45.10;19.30;99882.00;;;;5007985;28;20752;-55
2022/04/22 05:37:03;;;;;;;3.40;2.37;;;18.30;45.10;19.30;99869.00;;;;5008113;28;20178;-53
2022/04/22 05:39:29;;;;;;;2.60;2.20;;;18.30;45.10;19.30;99858.00;;;;5008096;28;20203;-55
2022/04/22 05:41:55;;;;;;;2.50;2.30;;;18.30;45.20;19.30;99857.00;;;;5007915;28;20192;-54
2022/04/22 05:44:20;;;;;;;2.83;2.30;;;18.30;45.20;19.30;99863.00;;;;5008750;28;20178;-54
2022/04/22 05:46:46;;;;;;;3.83;2.40;;;18.30;45.20;19.30;99863.00;;;;5007955;28;21012;-56
2022/04/22 05:49:12;;;;;;;2.40;2.20;;;18.30;45.20;19.30;99862.00;;;;5008471;28;20187;-55
2022/04/22 05:51:37;;;;;;;3.10;2.30;;;18.30;45.20;19.20;99860.00;;;;5008947;28;20250;-55
2022/04/22 05:54:03;;;;;;;3.47;2.40;;;18.20;45.10;19.30;99861.00;;;;5008993;28;20713;-57
2022/04/22 05:56:29;;;;;;;2.40;2.20;;;18.20;45.10;19.20;99864.00;;;;5008116;28;20202;-52
2022/04/22 05:58:55;;;;;;;2.90;2.27;;;18.20;45.20;19.20;99866.00;;;;5008434;28;20205;-52
2022/04/22 06:01:22;;;;;;;2.40;2.20;;;18.30;45.30;19.20;99865.00;;;;5008076;28;20193;-54
2022/04/22 06:03:48;;;;;;;3.40;2.30;;;18.20;45.20;19.20;99853.00;;;;5008795;28;20226;-54
2022/04/22 06:06:14;;;;;;;3.70;2.20;;;18.20;45.20;19.20;99865.00;;;;4990341;28;20581;-53
2022/04/22 06:11:24;;;;;;;2.73;2.33;;;18.20;45.20;19.20;99861.00;;;;5007475;28;20189;-55
2022/04/22 06:13:49;;;;;;;2.53;2.33;;;18.20;45.20;19.20;99868.00;;;;5008301;28;20253;-53
2022/04/22 06:16:15;;;;;;;2.60;2.40;;;18.20;45.20;19.20;99856.00;;;;5007829;28;20665;-53
2022/04/22 06:18:41;;;;;;;2.40;2.17;;;18.20;45.20;19.10;99855.00;;;;5007921;28;20215;-56
2022/04/22 06:21:07;;;;;;;2.67;2.10;;;18.10;45.20;18.90;99857.00;;;;4993577;28;20636;-57
2022/04/22 06:23:34;;;;;;;2.80;2.60;;;18.20;45.10;19.10;99832.00;;;;4964044;28;20201;-54
2022/04/22 06:26:00;;;;;;;2.50;2.30;;;18.20;45.30;19.10;99848.00;;;;5006506;28;20177;-56
2022/04/22 06:28:26;;;;;;;2.50;2.30;;;18.10;45.30;19.10;99851.00;;;;5022329;28;20189;-56
2022/04/22 06:30:52;;;;;;;2.20;2.10;;;18.10;45.30;19.10;99854.00;;;;5006200;28;20182;-53
2022/04/22 06:33:18;;;;;;;2.53;2.30;;;18.10;45.20;19.10;99852.00;;;;5007303;28;20198;-54
2022/04/22 06:35:44;;;;;;;3.23;2.50;;;18.10;45.30;19.10;99853.00;;;;5006935;28;20233;-53
2022/04/22 06:38:10;;;;;;;2.57;2.37;;;18.10;45.30;19.10;99855.00;;;;5006452;28;20298;-54
2022/04/22 06:46:05;;;;;;;2.57;2.30;;;18.10;45.60;19.00;99868.00;;;;5006773;28;20754;-57
2022/04/22 06:48:33;;;;;;;2.53;2.30;;;18.10;45.60;19.00;99852.00;;;;5007089;28;20186;-56
2022/04/22 06:51:00;;;;;;;2.60;2.40;;;18.10;45.60;19.00;99863.00;;;;5006101;28;20165;-54
2022/04/22 06:53:26;;;;;;;2.63;2.43;;;18.00;45.50;19.00;99861.00;;;;5006362;28;20204;-56
2022/04/22 06:55:53;;;;;;;2.57;2.37;;;18.00;45.70;19.00;99871.00;;;;5006889;28;20185;-56
2022/04/22 06:58:20;;;;;;;2.70;2.50;;;18.00;45.60;19.00;99864.00;;;;5005852;28;22862;-54
2022/04/22 07:00:46;;;;;;;2.50;2.30;;;18.00;45.70;19.00;99861.00;;;;5005903;28;20188;-57
2022/04/22 07:03:13;;;;;;;2.60;2.40;;;18.00;45.70;19.00;99857.00;;;;5008716;28;20195;-55
2022/04/22 07:05:41;;;;;;;2.90;2.60;;;18.00;45.70;18.90;99860.00;;;;5008683;28;20262;-54
2022/04/22 07:08:08;;;;;;;2.60;2.40;;;18.00;45.70;18.90;99865.00;;;;5010973;28;20640;-55
2022/04/22 07:10:34;;;;;;;2.50;2.30;;;18.00;45.80;18.90;99865.00;;;;5009165;28;20189;-55
2022/04/22 07:13:00;;;;;;;2.80;2.50;;;18.00;46.60;18.90;99859.00;;;;5010378;28;20829;-56
2022/04/22 07:15:26;;;;;;;3.13;2.50;;;18.00;46.10;18.90;99858.00;;;;5009490;28;20256;-54
2022/04/22 07:17:52;;;;;;;3.33;2.60;;;18.00;46.00;18.90;99858.00;;;;5008638;28;20180;-55
2022/04/22 07:20:19;;;;;;;2.63;2.43;;;18.00;46.00;18.90;99847.00;;;;5008795;28;20211;-55
2022/04/22 07:22:45;;;;;;;2.60;2.40;;;18.00;46.10;18.90;99847.00;;;;4936014;28;20195;-54
2022/04/22 07:25:11;;;;;;;2.70;2.50;;;17.90;46.00;18.90;99852.00;;;;5006567;28;20247;-55
2022/04/22 07:27:39;;;;;;;2.60;2.40;;;18.00;46.00;18.90;99844.00;;;;5008523;28;20172;-56
2022/04/22 07:30:07;;;;;;;2.60;2.40;;;17.90;45.90;18.90;99834.00;;;;5024087;28;20180;-55
2022/04/22 07:32:37;;;;;;;3.00;2.70;;;18.00;46.00;18.90;99828.00;;;;5006518;28;20205;-54
2022/04/22 07:35:11;;;;;;;2.53;2.33;;;17.90;46.00;18.90;99826.00;;;;5008439;28;20265;-54
2022/04/22 07:37:41;;;;;;;6.23;2.70;;;17.90;46.30;18.90;99826.00;;;;5037943;28;20179;-56
2022/04/22 07:40:07;;;;;;;4.47;2.30;;;17.90;46.30;18.90;99828.00;;;;5029912;28;20172;-54
2022/04/22 07:42:33;;;;;;;2.70;2.40;;;17.90;46.10;18.90;99828.00;;;;5012162;28;20212;-54
2022/04/22 07:47:46;;;;;;;2.67;2.30;;;17.90;46.40;18.80;99826.00;;;;4993926;28;20206;-53
2022/04/22 07:50:13;;;;;;;4.73;2.60;;;17.90;46.30;18.80;99829.00;;;;5018140;28;20275;-55
2022/04/22 07:52:39;;;;;;;4.60;2.60;;;17.90;46.40;18.80;99834.00;;;;5016357;28;20592;-57
2022/04/22 07:55:06;;;;;;;2.87;2.67;;;17.80;46.50;18.80;99826.00;;;;5012346;28;20191;-55
2022/04/22 07:57:31;;;;;;;5.70;3.27;;;17.90;46.70;18.80;99826.00;;;;5010326;28;20184;-54
2022/04/22 07:59:57;;;;;;;4.17;2.80;;;17.90;46.70;18.80;99833.00;;;;5008425;28;20612;-55
2022/04/22 08:02:23;;;;;;;3.20;2.90;;;17.90;46.80;18.80;99827.00;;;;5023128;28;20207;-54
2022/04/22 08:04:49;;;;;;;3.20;2.90;;;17.90;46.80;18.80;99832.00;;;;5006943;28;20173;-53
2022/04/22 08:07:16;;;;;;;3.73;3.10;;;17.90;46.80;18.80;99828.00;;;;5008287;28;20230;-56
2022/04/22 08:09:44;;;;;;;3.63;3.30;;;17.80;46.70;18.80;99820.00;;;;5008448;28;20552;-54
2022/04/22 08:12:12;;;;;;;3.97;3.57;;;17.80;46.90;18.80;99832.00;;;;5007738;28;20201;-53
2022/04/22 08:14:40;;;;;;;4.70;3.07;;;17.80;46.90;18.80;99820.00;;;;5008136;28;20171;-55
2022/04/22 08:17:06;;;;;;;8.50;3.60;;;17.80;47.10;18.80;99820.00;;;;5023088;28;20194;-54
2022/04/22 08:19:32;;;;;;;7.87;3.30;;;17.80;47.10;18.80;99829.00;;;;5007556;28;20209;-54
2022/04/22 08:21:58;;;;;;;4.23;3.37;;;17.80;47.20;18.80;99826.00;;;;4928768;28;20203;-53
2022/04/22 08:24:24;;;;;;;3.40;3.10;;;17.80;47.30;18.80;99830.00;;;;5021787;28;20181;-55
2022/04/22 08:26:50;;;;;;;4.43;3.33;;;17.80;47.30;18.80;99826.00;;;;5008761;28;20173;-54
2022/04/22 08:29:15;;;;;;;4.97;3.07;;;17.80;47.40;18.80;99825.00;;;;5008436;28;20190;-56
2022/04/22 08:31:42;;;;;;;4.93;3.70;;;17.70;47.40;18.70;99829.00;;;;5009520;28;20200;-55
2022/04/22 08:34:07;;;;;;;5.73;3.23;;;17.70;47.80;18.70;99830.00;;;;5008061;28;20171;-55
2022/04/22 08:36:34;;;;;;;6.50;3.10;;;17.80;47.90;18.70;99834.00;;;;5008234;28;20166;-54
2022/04/22 08:39:00;;;;;;;6.00;3.13;;;17.70;48.00;18.70;99826.00;;;;5008388;28;20215;-55
2022/04/22 08:41:31;;;;;;;4.57;3.10;;;17.80;48.00;18.70;99818.00;;;;5008169;28;20644;-55
2022/04/22 08:43:58;;;;;;;4.23;3.40;;;17.80;47.80;18.70;99826.00;;;;5007897;28;20742;-54
2022/04/22 08:52:09;;;;;;;3.53;3.00;;;17.70;48.30;18.70;99823.00;;;;5031018;28;20299;-52
2022/04/22 08:54:35;;;;;;;4.77;3.00;;;17.80;48.70;18.70;99826.00;;;;4993781;28;20199;-55
2022/04/22 08:57:02;;;;;;;5.10;3.07;;;17.80;48.40;18.70;99812.00;;;;5010058;28;20603;-55
2022/04/22 08:59:27;;;;;;;5.57;2.90;;;17.80;48.20;18.70;99810.00;;;;4993738;28;20201;-55
2022/04/22 09:01:56;;;;;;;3.13;2.80;;;17.80;48.10;18.70;99820.00;;;;5025725;28;20199;-54
2022/04/22 09:04:22;;;;;;;3.30;3.00;;;17.80;47.90;18.70;99809.00;;;;5010829;28;20172;-54
2022/04/22 09:06:50;;;;;;;4.00;3.10;;;17.80;47.80;18.70;99808.00;;;;5011163;28;20166;-55
2022/04/22 09:09:17;;;;;;;5.77;3.03;;;17.80;47.90;18.70;99809.00;;;;4994108;28;20179;-55
2022/04/22 09:11:43;;;;;;;4.20;2.90;;;17.80;48.60;18.70;99806.00;;;;5008635;28;20787;-54
2022/04/22 09:14:09;;;;;;;2.90;2.70;;;17.80;48.40;18.80;99797.00;;;;5011556;28;20183;-54
2022/04/22 09:16:34;;;;;;;3.40;3.00;;;17.80;48.20;18.80;99795.00;;;;5011644;28;20188;-54
2022/04/22 09:19:01;;;;;;;5.93;2.73;;;17.80;48.10;18.80;99786.00;;;;5010639;28;20254;-55
2022/04/22 09:21:27;;;;;;;4.57;3.07;;;17.80;47.90;18.80;99796.00;;;;4921529;28;20304;-57
2022/04/22 09:23:55;;;;;;;3.50;3.20;;;17.80;47.90;18.80;99793.00;;;;5016256;28;20193;-55
2022/04/22 09:26:30;;;;;;;4.57;2.70;;;17.90;47.90;18.80;99797.00;;;;4993443;28;20176;-57
2022/04/22 09:28:57;;;;;;;3.10;2.90;;;17.80;47.90;18.80;99788.00;;;;5011891;28;20513;-54
2022/04/22 09:31:25;;;;;;;4.10;2.77;;;17.80;48.00;18.80;99788.00;;;;5010864;28;20192;-56
2022/04/22 09:33:51;;;;;;;3.37;3.03;;;17.80;48.00;18.80;99795.00;;;;4994167;28;20168;-55
2022/04/22 09:44:55;;;;;;;4.40;2.90;;;17.80;48.10;18.80;99772.00;;;;5010105;28;20207;-54
2022/04/22 09:47:21;;;;;;;4.10;2.90;;;17.80;47.90;18.80;99772.00;;;;5010653;28;20705;-55
2022/04/22 09:49:47;;;;;;;4.00;2.93;;;17.80;47.90;18.80;99772.00;;;;4992605;28;20177;-54
2022/04/22 09:52:13;;;;;;;3.60;2.53;;;17.80;47.90;18.80;99760.00;;;;5010000;28;20235;-55
2022/04/22 09:54:39;;;;;;;3.27;2.97;;;17.80;47.80;18.80;99765.00;;;;5012969;28;20233;-53
2022/04/22 09:57:05;;;;;;;4.27;3.07;;;17.80;47.90;18.80;99764.00;;;;5008755;28;20617;-54
2022/04/22 09:59:32;;;;;;;3.47;2.60;;;17.80;47.90;18.80;99763.00;;;;5009243;28;20194;-54
2022/04/22 10:02:00;;;;;;;3.27;2.93;;;17.80;47.90;18.80;99756.00;;;;5011773;28;20701;-54
2022/04/22 10:04:26;;;;;;;3.27;2.80;;;17.80;47.80;18.80;99754.00;;;;5010203;28;20256;-56
2022/04/22 10:06:52;;;;;;;4.20;3.20;;;17.80;47.80;18.80;99753.00;;;;4992543;28;20696;-55
2022/04/22 10:09:18;;;;;;;3.10;2.67;;;17.80;47.80;18.80;99746.00;;;;5010151;28;20178;-57
2022/04/22 10:11:47;;;;;;;3.00;2.70;;;17.80;47.80;18.80;99753.00;;;;4976940;28;20196;-55
2022/04/22 10:14:13;;;;;;;3.10;2.70;;;17.80;47.80;18.80;99747.00;;;;5010034;28;20779;-52
2022/04/22 10:16:39;;;;;;;3.00;2.80;;;17.80;47.80;18.80;99752.00;;;;4991959;28;20279;-54
2022/04/22 10:19:08;;;;;;;3.03;2.73;;;17.80;47.80;18.80;99748.00;;;;5009819;28;20226;-55
2022/04/22 10:21:34;;;;;;;3.00;2.80;;;17.80;47.90;18.80;99737.00;;;;4920276;28;23159;-54
2022/04/22 10:23:59;;;;;;;4.07;2.90;;;17.80;47.80;18.80;99747.00;;;;5029891;28;20658;-56
2022/04/22 10:26:29;;;;;;;3.20;2.70;;;17.80;48.00;18.80;99736.00;;;;5011536;28;20178;-53
2022/04/22 10:28:55;;;;;;;3.50;2.90;;;17.80;47.90;18.80;99742.00;;;;5029306;28;20176;-55
2022/04/22 10:31:22;;;;;;;2.90;2.70;;;17.80;48.00;18.80;99739.00;;;;5027960;28;20172;-55
2022/04/22 10:33:48;;;;;;;3.33;3.03;;;17.80;48.00;18.80;99725.00;;;;5011523;28;20541;-54
2022/04/22 10:36:15;;;;;;;2.90;2.70;;;17.80;48.00;18.80;99742.00;;;;5027843;28;20518;-55
2022/04/22 10:38:44;;;;;;;3.40;3.10;;;17.80;48.00;18.80;99731.00;;;;5028163;28;20193;-56
2022/04/22 10:41:22;;;;;;;3.03;2.80;;;17.80;48.00;18.80;99727.00;;;;5029001;28;20168;-57
2022/04/22 10:49:46;;;;;;;3.17;2.87;;;17.90;48.20;18.80;99716.00;;;;5028851;28;20166;-54
2022/04/22 10:52:14;;;;;;;3.00;2.80;;;17.90;48.10;18.80;99714.00;;;;5036488;28;20271;-55
2022/04/22 10:54:51;;;;;;;3.10;2.90;;;17.90;48.00;18.90;99729.00;;;;5036119;28;20172;-54
2022/04/22 10:57:25;;;;;;;3.83;3.03;;;17.90;48.00;18.90;99716.00;;;;5033951;28;20178;-55
2022/04/22 11:00:07;;;;;;;2.87;2.67;;;17.90;48.00;18.90;99714.00;;;;5017132;28;20875;-55
2022/04/22 11:02:34;;;;;;;2.80;2.60;;;17.90;48.00;18.90;99714.00;;;;5008678;28;20214;-55
2022/04/22 11:05:20;;;;;;;2.93;2.70;;;17.90;48.10;18.90;99708.00;;;;5008759;28;20156;-54
2022/04/22 11:07:57;;;;;;;2.90;2.70;;;17.80;48.00;18.90;99712.00;;;;5007839;28;20247;-53
2022/04/22 11:10:49;;;;;;;3.30;2.57;;;17.90;48.00;18.90;99701.00;;;;5008556;28;20785;-54
2022/04/22 11:13:38;;;;;;;3.20;2.90;;;17.90;48.10;18.90;99695.00;;;;5008622;28;20717;-55
2022/04/22 11:16:19;;;;;;;3.30;3.00;;;17.90;48.00;18.90;99689.00;;;;5008197;28;20260;-56
2022/04/22 11:18:45;;;;;;;3.33;2.70;;;18.00;48.00;18.90;99692.00;;;;5008019;28;20195;-54
2022/04/22 11:21:37;;;;;;;3.03;2.83;;;17.90;48.00;19.00;99673.00;;;;4937951;28;20173;-58
2022/04/22 11:24:14;;;;;;;2.80;2.60;;;17.90;47.50;19.00;99677.00;;;;5007317;28;20167;-53
2022/04/22 11:26:40;;;;;;;2.70;2.50;;;17.90;47.90;19.00;99675.00;;;;5008283;28;20158;-55
2022/04/22 11:29:10;;;;;;;2.90;2.70;;;18.00;48.00;19.00;99671.00;;;;5010297;28;20166;-55
2022/04/22 11:31:36;;;;;;;3.20;2.90;;;18.00;47.90;19.00;99666.00;;;;5009464;28;20292;-58
2022/04/22 11:34:13;;;;;;;2.70;2.50;;;18.00;48.00;19.00;99670.00;;;;5006922;28;20276;-53
2022/04/22 11:36:44;;;;;;;3.37;2.73;;;18.10;48.00;19.00;99663.00;;;;4987167;28;20173;-55
2022/04/22 11:39:20;;;;;;;3.13;2.80;;;18.10;48.00;19.10;99666.00;;;;4988397;28;20328;-55
2022/04/22 11:42:00;;;;;;;6.20;3.07;;;18.10;48.10;19.10;99671.00;;;;4986855;28;20198;-56
2022/04/22 11:44:27;;;;;;;6.50;3.20;;;18.10;48.20;19.10;99652.00;;;;5008029;28;20170;-55
2022/04/22 11:46:53;;;;;;;4.57;3.33;;;18.10;48.70;19.10;99645.00;;;;5007618;28;20157;-54
2022/04/22 11:49:19;;;;;;;5.43;3.20;;;18.20;48.90;19.10;99637.00;;;;4991876;28;20170;-55
2022/04/22 11:51:46;;;;;;;3.63;2.80;;;18.10;49.90;19.10;99646.00;;;;5008774;28;20809;-54
2022/04/22 11:54:11;;;;;;;7.27;2.90;;;18.20;49.50;19.20;99640.00;;;;5007874;28;20156;-54
2022/04/22 11:56:37;;;;;;;14.07;3.50;;;18.30;50.50;19.20;99641.00;;;;4988561;28;20193;-55